Sulphur Springs, TX

4:23 AM CDT on August 24, 2016 (GMT -0500)
Sulphur Springs Municipal

Weather History for KSLR - November, 2012

Change the Weather History Date:

Sunday, November 11, 2012

  Actual Average (KGVT) Record (KGVT)
Temperature  
Mean Temperature 58 °F -  
Max Temperature 73 °F 63 °F 84 °F (2015)
Min Temperature 44 °F 50 °F 37 °F (2014)
Degree Days  
Heating Degree Days 6    
Growing Degree Days 8 (Base 50)    
Moisture  
Dew Point 54 °F    
Average Humidity 74    
Maximum Humidity 88    
Minimum Humidity 63    
Precipitation  
Precipitation 0.27 in - - ()
Sea Level Pressure  
Sea Level Pressure 29.99 in    
Wind  
Wind Speed 13 mph (WSW)    
Max Wind Speed 29 mph    
Max Gust Speed 28 mph    
Visibility 10 miles    
Events Rain , Thunderstorm    
Averages and records for this station are not official NWS values.
T = Trace of Precipitation, MM = Missing Value Source: NWS Daily Summary

Daily Weather History Graph

Daily Weather History Graph

Search for Another Location

Airport or City:

Trip Planner

Search our weather history database for the weather conditions in past years. The results will help you decide how hot, cold, wet, or windy it might be!

Date:

Astronomy

Nov. 11, 2012 Rise Set
Actual Time 6:50 AM CST 5:22 PM CST
Civil Twilight 6:24 AM CST 5:48 PM CST
Nautical Twilight 5:54 AM CST 6:18 PM CST
Astronomical Twilight 5:25 AM CST 6:47 PM CST
Moon 4:11 AM CST (11/11) 3:42 PM CST (11/11)
Length of Visible Light 11h 24m
Length of Day
10h 32m
Waning Crescent, 7% of the Moon is Illuminated
Nov 11
Waning Crescent
Nov 13
New
Nov 20
First Quarter
Nov 28
Full
Dec 6
Last Quarter

Hourly Weather History & Observations

Time (CST) Temp. Windchill Dew Point Humidity Pressure Visibility Wind Dir Wind Speed Gust Speed Precip Events Conditions
12:15 AM 69.8 °F - 57.2 °F 64% 29.92 in 10.0 mi SSE 10.4 mph 16.1 mph N/A   Mostly Cloudy
12:35 AM 68.0 °F - 57.2 °F 68% 29.92 in 10.0 mi SSE 15.0 mph 20.7 mph N/A   Scattered Clouds
12:55 AM 68.0 °F - 59.0 °F 73% 29.91 in 10.0 mi SSE 11.5 mph 17.3 mph N/A   Scattered Clouds
1:15 AM 68.0 °F - 59.0 °F 73% 29.90 in 10.0 mi SSE 11.5 mph - N/A   Mostly Cloudy
1:35 AM 68.0 °F - 59.0 °F 73% 29.90 in 10.0 mi SSE 11.5 mph 17.3 mph N/A   Mostly Cloudy
1:55 AM 68.0 °F - 59.0 °F 73% 29.90 in 10.0 mi SSE 11.5 mph - N/A   Overcast
2:15 AM 68.0 °F - 59.0 °F 73% 29.89 in 10.0 mi SSE 9.2 mph 16.1 mph N/A   Mostly Cloudy
2:35 AM 68.0 °F - 59.0 °F 73% 29.89 in 10.0 mi SSE 9.2 mph 19.6 mph N/A   Mostly Cloudy
2:55 AM 68.0 °F - 60.8 °F 78% 29.87 in 10.0 mi SSE 11.5 mph 18.4 mph N/A   Scattered Clouds
3:15 AM 68.0 °F - 60.8 °F 78% 29.87 in 10.0 mi SSE 12.7 mph 18.4 mph N/A   Scattered Clouds
3:35 AM 68.0 °F - 60.8 °F 78% 29.86 in 10.0 mi SSE 12.7 mph - N/A   Clear
3:55 AM 68.0 °F - 60.8 °F 78% 29.85 in 10.0 mi SSE 11.5 mph 18.4 mph N/A   Scattered Clouds
4:15 AM 68.0 °F - 60.8 °F 78% 29.85 in 10.0 mi SSE 13.8 mph 21.9 mph N/A   Scattered Clouds
4:35 AM 69.8 °F - 60.8 °F 73% 29.85 in 10.0 mi SSE 12.7 mph 19.6 mph N/A   Scattered Clouds
4:55 AM 69.8 °F - 60.8 °F 73% 29.86 in 10.0 mi South 11.5 mph 21.9 mph N/A   Mostly Cloudy
5:35 AM 69.8 °F - 62.6 °F 78% 29.87 in 10.0 mi South 15.0 mph 19.6 mph N/A   Mostly Cloudy
5:55 AM 69.8 °F - 62.6 °F 78% 29.87 in 10.0 mi SSE 13.8 mph - N/A   Mostly Cloudy
6:15 AM 69.8 °F - 62.6 °F 78% 29.88 in 10.0 mi South 11.5 mph 17.3 mph N/A   Mostly Cloudy
6:35 AM 69.8 °F - 62.6 °F 78% 29.89 in 10.0 mi South 10.4 mph - N/A   Mostly Cloudy
6:55 AM 71.6 °F - 62.6 °F 73% 29.90 in 10.0 mi South 13.8 mph 18.4 mph N/A   Mostly Cloudy
7:35 AM 71.6 °F - 62.6 °F 73% 29.92 in 10.0 mi South 10.4 mph - N/A   Overcast
7:55 AM 71.6 °F - 62.6 °F 73% 29.93 in 10.0 mi South 10.4 mph - N/A   Mostly Cloudy
8:15 AM 71.6 °F - 62.6 °F 73% 29.94 in 10.0 mi South 10.4 mph 16.1 mph N/A   Mostly Cloudy
8:35 AM 71.6 °F - 62.6 °F 73% 29.94 in 10.0 mi South 11.5 mph - N/A Rain Light Rain
8:55 AM 71.6 °F - 62.6 °F 73% 29.93 in 10.0 mi South 13.8 mph 20.7 mph N/A   Mostly Cloudy
9:15 AM 71.6 °F - 62.6 °F 73% 29.94 in 10.0 mi South 16.1 mph 27.6 mph N/A   Scattered Clouds
9:35 AM 69.8 °F - 64.4 °F 83% 29.94 in 7.0 mi South 13.8 mph 19.6 mph 0.01 in Rain Light Rain
9:55 AM 71.6 °F - 64.4 °F 78% 29.93 in 10.0 mi South 12.7 mph 18.4 mph 0.01 in   Mostly Cloudy
10:15 AM 71.6 °F - 64.4 °F 78% 29.91 in 10.0 mi South 10.4 mph 16.1 mph N/A   Mostly Cloudy
10:35 AM 71.6 °F - 64.4 °F 78% 29.91 in 10.0 mi South 13.8 mph 23.0 mph N/A Thunderstorm Overcast
10:55 AM 71.6 °F - 64.4 °F 78% 29.91 in 5.0 mi SSW 11.5 mph - 0.03 in Rain , Thunderstorm Heavy Thunderstorms and Rain
11:35 AM 68.0 °F - 64.4 °F 88% 29.89 in 10.0 mi SSW 6.9 mph - 0.23 in Thunderstorm Mostly Cloudy
12:15 PM 69.8 °F - 66.2 °F 88% 29.89 in 10.0 mi SSW 6.9 mph - N/A Thunderstorm Scattered Clouds
12:35 PM 71.6 °F - 68.0 °F 88% 29.87 in 10.0 mi SW 10.4 mph - N/A Thunderstorm Clear
12:55 PM 73.4 °F - 66.2 °F 78% 29.87 in 10.0 mi SW 13.8 mph 19.6 mph N/A   Clear
1:15 PM 62.6 °F - 55.4 °F 77% 29.89 in 10.0 mi NNW 28.8 mph - N/A   Mostly Cloudy
1:35 PM 60.8 °F - 51.8 °F 72% 29.92 in 10.0 mi NNW 23.0 mph 27.6 mph N/A Thunderstorm Mostly Cloudy
1:55 PM 60.8 °F - 50.0 °F 68% 29.94 in 10.0 mi NNW 21.9 mph 27.6 mph N/A   Mostly Cloudy
2:15 PM 59.0 °F - 50.0 °F 72% 29.94 in 10.0 mi NNW 18.4 mph 21.9 mph N/A Thunderstorm Scattered Clouds
2:35 PM 60.8 °F - 50.0 °F 68% 29.95 in 10.0 mi NNW 15.0 mph - N/A   Scattered Clouds
2:55 PM 60.8 °F - 48.2 °F 63% 29.95 in 10.0 mi NNW 16.1 mph - N/A   Mostly Cloudy
3:15 PM 59.0 °F - 46.4 °F 63% 29.95 in 10.0 mi NNW 13.8 mph - N/A   Overcast
3:35 PM 59.0 °F - 46.4 °F 63% 29.97 in 10.0 mi NNW 10.4 mph - N/A   Overcast
3:55 PM 59.0 °F - 46.4 °F 63% 29.99 in 10.0 mi NNW 15.0 mph - N/A   Overcast
4:15 PM 57.2 °F - 46.4 °F 67% 30.00 in 10.0 mi NNW 13.8 mph - N/A   Overcast
4:35 PM 57.2 °F - 46.4 °F 67% 30.01 in 10.0 mi North 12.7 mph - N/A   Overcast
4:55 PM 55.4 °F - 46.4 °F 72% 30.01 in 10.0 mi North 13.8 mph 17.3 mph N/A   Overcast
5:15 PM 55.4 °F - 46.4 °F 72% 30.03 in 10.0 mi North 12.7 mph - N/A   Overcast
5:35 PM 55.4 °F - 46.4 °F 72% 30.05 in 10.0 mi North 12.7 mph - N/A   Overcast
5:55 PM 55.4 °F - 46.4 °F 72% 30.06 in 10.0 mi North 10.4 mph - N/A   Overcast
6:15 PM 55.4 °F - 46.4 °F 72% 30.06 in 10.0 mi North 10.4 mph - N/A   Overcast
6:35 PM 55.4 °F - 46.4 °F 72% 30.07 in 10.0 mi North 11.5 mph - N/A   Mostly Cloudy
6:55 PM 55.4 °F - 46.4 °F 72% 30.09 in 10.0 mi North 9.2 mph - N/A   Overcast
7:15 PM 55.4 °F - 46.4 °F 72% 30.10 in 10.0 mi North 6.9 mph - N/A   Overcast
7:35 PM 55.4 °F - 46.4 °F 72% 30.11 in 10.0 mi North 8.1 mph - N/A   Overcast
7:55 PM 55.4 °F - 48.2 °F 77% 30.12 in 10.0 mi NNW 17.3 mph - N/A   Overcast
8:15 PM 53.6 °F - 46.4 °F 77% 30.15 in 10.0 mi North 19.6 mph - N/A   Overcast
8:35 PM 53.6 °F - 46.4 °F 77% 30.17 in 10.0 mi NNW 13.8 mph 18.4 mph N/A   Overcast
8:55 PM 51.8 °F - 44.6 °F 76% 30.17 in 10.0 mi North 16.1 mph 21.9 mph N/A   Overcast
9:15 PM 51.8 °F - 44.6 °F 76% 30.19 in 10.0 mi NNW 16.1 mph 19.6 mph N/A   Overcast
9:35 PM 51.8 °F - 42.8 °F 71% 30.21 in 10.0 mi NNW 17.3 mph 24.2 mph N/A   Overcast
9:55 PM 50.0 °F - 41.0 °F 71% 30.22 in 10.0 mi NNW 20.7 mph - N/A   Mostly Cloudy
10:15 PM 48.2 °F - 41.0 °F 76% 30.22 in 10.0 mi NNW 19.6 mph 25.3 mph N/A   Mostly Cloudy
10:35 PM 46.4 °F 39.5 °F 39.2 °F 76% 30.24 in 10.0 mi North 17.3 mph - N/A   Mostly Cloudy
10:55 PM 46.4 °F 40.1 °F 37.4 °F 71% 30.25 in 10.0 mi NNW 15.0 mph - N/A   Mostly Cloudy
11:15 PM 46.4 °F 40.7 °F 37.4 °F 71% 30.25 in 10.0 mi North 12.7 mph - N/A Thunderstorm Overcast
11:35 PM 44.6 °F 37.4 °F 37.4 °F 76% 30.27 in 10.0 mi NNW 16.1 mph - N/A   Mostly Cloudy
11:55 PM 44.6 °F 37.4 °F 35.6 °F 71% 30.28 in 10.0 mi NNW 16.1 mph - N/A   Scattered Clouds